createdAt,value
2017-12-10T00:02:01.282Z,17.48
2017-12-10T00:04:28.794Z,15.10
2017-12-10T00:06:56.322Z,15.10
2017-12-10T00:09:23.806Z,14.13
2017-12-10T00:11:52.650Z,15.80
2017-12-10T00:14:20.308Z,14.87
2017-12-10T00:16:48.094Z,17.67
2017-12-10T00:19:16.362Z,16.35
2017-12-10T00:21:44.677Z,16.15
2017-12-10T00:24:12.933Z,14.90
2017-12-10T00:26:40.416Z,16.00
2017-12-10T00:29:07.910Z,15.60
2017-12-10T00:31:35.406Z,16.70
2017-12-10T00:34:03.049Z,17.67
2017-12-10T00:36:30.546Z,18.30
2017-12-10T00:38:58.795Z,17.77
2017-12-10T00:41:26.280Z,19.73
2017-12-10T00:43:54.570Z,19.60
2017-12-10T00:46:22.046Z,19.02
2017-12-10T00:48:49.523Z,21.05
2017-12-10T00:51:17.043Z,18.50
2017-12-10T00:53:44.562Z,19.98
2017-12-10T00:56:12.230Z,19.27
2017-12-10T00:58:39.718Z,17.23
2017-12-10T01:01:07.206Z,20.48
2017-12-10T01:03:34.693Z,18.60
2017-12-10T01:06:02.196Z,20.75
2017-12-10T01:08:29.683Z,19.20
2017-12-10T01:10:57.182Z,21.10
2017-12-10T01:13:24.693Z,19.15
2017-12-10T01:15:52.548Z,19.35
2017-12-10T01:18:20.040Z,20.70
2017-12-10T01:20:48.197Z,19.42
2017-12-10T01:23:15.678Z,19.37
2017-12-10T01:25:43.158Z,19.92
2017-12-10T01:28:10.661Z,20.40
2017-12-10T01:30:38.145Z,19.50
2017-12-10T01:33:05.633Z,19.80
2017-12-10T01:35:33.195Z,20.30
2017-12-10T01:38:00.665Z,18.80
2017-12-10T01:40:28.313Z,20.17
2017-12-10T01:42:55.810Z,20.33
2017-12-10T01:45:23.297Z,21.30
2017-12-10T01:47:50.786Z,19.62
2017-12-10T01:50:19.244Z,20.10
2017-12-10T01:52:46.806Z,20.85
2017-12-10T01:55:14.286Z,19.05
2017-12-10T01:57:41.798Z,20.88
2017-12-10T02:00:09.287Z,18.90
2017-12-10T02:02:36.762Z,19.80
2017-12-10T02:05:05.434Z,20.15
2017-12-10T02:07:32.921Z,20.40
2017-12-10T02:10:01.183Z,19.90
2017-12-10T02:12:28.681Z,20.27
2017-12-10T02:14:56.172Z,21.42
2017-12-10T02:17:23.658Z,20.83
2017-12-10T02:19:51.160Z,21.23
2017-12-10T02:22:18.826Z,19.73
2017-12-10T02:24:46.309Z,20.85
2017-12-10T02:27:14.146Z,21.25
2017-12-10T02:29:41.696Z,20.92
2017-12-10T02:32:09.198Z,20.50
2017-12-10T02:34:37.447Z,21.30
2017-12-10T02:37:05.578Z,19.80
2017-12-10T02:39:33.996Z,20.02
2017-12-10T02:42:01.686Z,21.70
2017-12-10T02:44:29.169Z,20.75
2017-12-10T02:46:56.683Z,21.70
2017-12-10T02:49:24.166Z,19.08
2017-12-10T02:51:52.717Z,20.77
2017-12-10T02:54:21.054Z,20.30
2017-12-10T02:56:50.942Z,18.55
2017-12-10T02:59:19.263Z,18.27
2017-12-10T03:01:47.722Z,18.75
2017-12-10T03:04:15.815Z,19.98
2017-12-10T03:06:45.348Z,17.75
2017-12-10T03:09:13.710Z,19.73
2017-12-10T03:11:41.194Z,17.87
2017-12-10T03:14:08.673Z,22.48
2017-12-10T03:16:36.182Z,19.50
2017-12-10T03:19:03.668Z,17.90
2017-12-10T03:21:31.149Z,16.40
2017-12-10T03:23:58.658Z,16.02
2017-12-10T03:26:26.170Z,16.80
2017-12-10T03:28:54.422Z,13.32
2017-12-10T03:31:21.922Z,15.43
2017-12-10T03:33:49.410Z,16.80
2017-12-10T03:36:16.912Z,16.10
2017-12-10T03:38:44.420Z,15.52
2017-12-10T03:41:12.674Z,15.75
2017-12-10T03:43:40.209Z,15.68
2017-12-10T03:46:07.947Z,14.18
2017-12-10T03:48:35.428Z,12.95
2017-12-10T03:51:03.133Z,13.82
2017-12-10T03:53:30.681Z,11.93
2017-12-10T03:55:58.166Z,11.70
2017-12-10T03:58:25.654Z,12.18
2017-12-10T04:00:53.155Z,12.20
2017-12-10T04:03:20.630Z,12.30
2017-12-10T04:05:48.877Z,12.70
2017-12-10T04:08:16.700Z,10.52
2017-12-10T04:10:44.236Z,10.95
2017-12-10T04:13:12.536Z,11.12
2017-12-10T04:15:40.103Z,10.10
2017-12-10T04:18:07.583Z,11.05
2017-12-10T04:20:35.070Z,10.23
2017-12-10T04:23:02.714Z,8.50
2017-12-10T04:25:30.230Z,8.35
2017-12-10T04:27:57.941Z,10.05
2017-12-10T04:30:25.509Z,9.95
2017-12-10T04:32:52.997Z,10.65
2017-12-10T04:35:21.253Z,9.27
2017-12-10T04:37:48.759Z,9.05
2017-12-10T04:40:16.257Z,9.27
2017-12-10T04:42:43.742Z,10.25
2017-12-10T04:45:12.021Z,8.30
2017-12-10T04:47:40.281Z,10.07
2017-12-10T04:50:08.596Z,10.35
2017-12-10T04:52:36.774Z,8.57
2017-12-10T04:55:05.162Z,9.85
2017-12-10T04:57:32.637Z,9.77
2017-12-10T05:00:00.150Z,9.52
2017-12-10T05:02:27.681Z,10.88
2017-12-10T05:04:55.131Z,10.30
2017-12-10T05:07:22.630Z,11.02
2017-12-10T05:09:50.134Z,8.98
2017-12-10T05:12:18.217Z,11.43
2017-12-10T05:14:47.201Z,10.50
2017-12-10T05:17:14.881Z,10.75
2017-12-10T05:19:42.418Z,8.50
2017-12-10T05:22:10.663Z,9.27
2017-12-10T05:24:38.138Z,10.15
2017-12-10T05:27:05.618Z,11.18
2017-12-10T05:29:33.121Z,9.80
2017-12-10T05:32:01.263Z,9.25
2017-12-10T05:34:28.900Z,9.32
2017-12-10T05:36:56.394Z,8.75
2017-12-10T05:39:23.882Z,9.10
2017-12-10T05:41:51.487Z,9.40
2017-12-10T05:44:19.798Z,9.02
2017-12-10T05:46:48.077Z,8.45
2017-12-10T05:49:16.322Z,7.82
2017-12-10T05:51:43.829Z,6.35
2017-12-10T05:54:11.311Z,7.32
2017-12-10T05:56:38.793Z,8.65
2017-12-10T05:59:06.291Z,9.55
2017-12-10T06:01:34.540Z,8.18
2017-12-10T06:04:02.018Z,8.30
2017-12-10T06:06:30.285Z,8.02
2017-12-10T06:08:57.767Z,8.30
2017-12-10T06:11:26.022Z,7.85
2017-12-10T06:13:53.537Z,8.15
2017-12-10T06:16:21.018Z,8.13
2017-12-10T06:18:49.293Z,8.10
2017-12-10T06:21:16.854Z,7.10
2017-12-10T06:23:44.334Z,7.03
2017-12-10T06:26:12.678Z,7.50
2017-12-10T06:28:40.298Z,5.95
2017-12-10T06:31:07.786Z,6.62
2017-12-10T06:33:35.262Z,7.87
2017-12-10T06:36:03.416Z,4.78
2017-12-10T06:38:31.030Z,7.22
2017-12-10T06:41:01.195Z,8.20
2017-12-10T06:43:28.889Z,7.90
2017-12-10T06:45:56.370Z,8.45
2017-12-10T06:48:23.848Z,6.80
2017-12-10T06:50:52.127Z,7.03
2017-12-10T06:53:21.178Z,5.03
2017-12-10T06:55:48.658Z,6.47
2017-12-10T06:58:16.942Z,4.65
2017-12-10T07:00:45.182Z,6.50
2017-12-10T07:03:12.666Z,6.18
2017-12-10T07:05:41.995Z,6.00
2017-12-10T07:08:10.027Z,6.55
2017-12-10T07:10:39.617Z,5.50
2017-12-10T07:13:07.559Z,5.70
2017-12-10T07:15:35.407Z,5.45
2017-12-10T07:18:03.665Z,6.60
2017-12-10T07:20:32.046Z,5.68
2017-12-10T07:22:59.570Z,5.43
2017-12-10T07:25:28.726Z,4.82
2017-12-10T07:27:56.610Z,4.07
2017-12-10T07:30:24.098Z,5.15
2017-12-10T07:32:52.348Z,4.82
2017-12-10T07:35:20.574Z,5.32
2017-12-10T07:37:48.110Z,4.25
2017-12-10T07:40:15.591Z,5.45
2017-12-10T07:42:43.126Z,5.10
2017-12-10T07:45:10.611Z,5.30
2017-12-10T07:47:38.114Z,4.35
2017-12-10T07:50:05.772Z,5.70
2017-12-10T07:52:33.309Z,5.68
2017-12-10T07:55:01.562Z,4.60
2017-12-10T07:57:31.150Z,5.20
2017-12-10T07:59:59.250Z,4.45
2017-12-10T08:02:27.818Z,4.82
2017-12-10T08:04:56.415Z,5.10
2017-12-10T08:07:24.439Z,4.90
2017-12-10T08:09:51.976Z,4.95
2017-12-10T08:12:19.489Z,6.15
2017-12-10T08:14:46.981Z,5.32
2017-12-10T08:17:15.228Z,6.40
2017-12-10T08:19:43.003Z,5.93
2017-12-10T08:22:10.799Z,5.65
2017-12-10T08:24:39.899Z,6.57
2017-12-10T08:27:07.407Z,6.32
2017-12-10T08:29:35.211Z,5.47
2017-12-10T08:32:02.709Z,5.97
2017-12-10T08:34:31.855Z,6.18
2017-12-10T08:37:00.106Z,5.50
2017-12-10T08:39:27.598Z,6.95
2017-12-10T08:41:56.760Z,6.15
2017-12-10T08:44:24.322Z,4.72
2017-12-10T08:46:52.085Z,5.15
2017-12-10T08:49:19.684Z,4.97
2017-12-10T08:51:47.116Z,4.87
2017-12-10T08:54:15.378Z,4.20
2017-12-10T08:56:43.783Z,4.37
2017-12-10T08:59:12.034Z,4.70
2017-12-10T09:01:39.511Z,4.90
2017-12-10T09:04:07.789Z,5.05
2017-12-10T09:06:36.094Z,4.05
2017-12-10T09:09:03.581Z,3.33
2017-12-10T09:11:31.264Z,4.28
2017-12-10T09:13:58.750Z,4.22
2017-12-10T09:16:27.122Z,3.78
2017-12-10T09:18:54.669Z,4.00
2017-12-10T09:21:22.193Z,4.32
2017-12-10T09:23:49.697Z,2.83
2017-12-10T09:26:17.196Z,3.62
2017-12-10T09:28:44.676Z,4.40
2017-12-10T09:31:12.156Z,4.80
2017-12-10T09:33:39.654Z,3.20
2017-12-10T09:36:07.899Z,3.33
2017-12-10T09:38:35.370Z,1.92
2017-12-10T09:41:03.654Z,3.90
2017-12-10T09:43:31.910Z,3.42
2017-12-10T09:45:59.417Z,3.55
2017-12-10T09:48:26.938Z,2.90
2017-12-10T09:50:54.424Z,2.92
2017-12-10T09:53:21.902Z,3.87
2017-12-10T09:55:49.390Z,3.30
2017-12-10T09:58:16.870Z,2.95
2017-12-10T10:00:44.350Z,2.60
2017-12-10T10:03:12.625Z,3.60
2017-12-10T10:05:40.877Z,3.67
2017-12-10T10:08:08.359Z,3.30
2017-12-10T10:10:36.617Z,3.60
2017-12-10T10:13:04.175Z,3.25
2017-12-10T10:15:32.323Z,3.65
2017-12-10T10:17:59.922Z,4.60
2017-12-10T10:20:28.162Z,4.50
2017-12-10T10:22:55.638Z,3.83
2017-12-10T10:25:23.154Z,3.20
2017-12-10T10:27:50.923Z,3.15
2017-12-10T10:30:18.642Z,4.05
2017-12-10T10:32:46.934Z,2.87
2017-12-10T10:35:14.422Z,4.32
2017-12-10T10:37:41.898Z,2.55
2017-12-10T10:40:10.331Z,2.03
2017-12-10T10:42:38.592Z,2.12
2017-12-10T10:45:06.271Z,2.72
2017-12-10T10:47:33.817Z,2.67
2017-12-10T10:50:02.083Z,2.47
2017-12-10T10:52:29.572Z,2.28
2017-12-10T10:54:57.110Z,1.55
2017-12-10T10:57:24.596Z,2.78
2017-12-10T10:59:52.090Z,2.30
2017-12-10T11:02:19.587Z,2.22
2017-12-10T11:04:47.861Z,2.00
2017-12-10T11:07:16.131Z,2.37
2017-12-10T11:09:43.632Z,2.28
2017-12-10T11:12:11.123Z,2.28
2017-12-10T11:14:38.686Z,2.30
2017-12-10T11:17:06.499Z,1.50
2017-12-10T11:19:34.003Z,1.67
2017-12-10T11:22:02.078Z,1.85
2017-12-10T11:24:33.626Z,2.15
2017-12-10T11:27:05.395Z,1.70
2017-12-10T11:29:37.189Z,1.80
2017-12-10T11:32:05.084Z,2.28
2017-12-10T11:34:32.890Z,2.08
2017-12-10T11:37:02.013Z,1.80
2017-12-10T11:39:29.761Z,2.10
2017-12-10T11:41:57.552Z,2.20
2017-12-10T11:44:25.255Z,2.00
2017-12-10T11:46:52.949Z,2.03
2017-12-10T11:49:23.003Z,2.30
2017-12-10T11:51:55.800Z,2.42
2017-12-10T11:54:26.049Z,2.05
2017-12-10T11:56:53.635Z,2.90
2017-12-10T11:59:21.110Z,3.15
2017-12-10T12:01:49.450Z,1.92
2017-12-10T12:04:16.944Z,3.75
2017-12-10T12:06:45.390Z,3.10
2017-12-10T12:09:13.001Z,3.15
2017-12-10T12:11:41.333Z,3.47
2017-12-10T12:14:08.962Z,2.90
2017-12-10T12:16:37.227Z,4.25
2017-12-10T12:19:04.998Z,4.82
2017-12-10T12:21:33.337Z,4.20
2017-12-10T12:24:01.095Z,4.20
2017-12-10T12:26:28.611Z,5.00
2017-12-10T12:28:56.098Z,3.75
2017-12-10T12:31:23.578Z,4.62
2017-12-10T12:33:51.082Z,4.53
2017-12-10T12:36:18.573Z,4.70
2017-12-10T12:38:46.066Z,4.37
2017-12-10T12:41:14.338Z,4.25
2017-12-10T12:43:41.818Z,5.07
2017-12-10T12:46:10.166Z,4.25
2017-12-10T12:48:37.674Z,4.35
2017-12-10T12:51:05.159Z,5.40
2017-12-10T12:53:32.774Z,5.10
2017-12-10T12:56:00.302Z,3.95
2017-12-10T12:58:27.800Z,4.80
2017-12-10T13:00:55.295Z,4.40
2017-12-10T13:03:23.888Z,4.72
2017-12-10T13:05:52.214Z,4.68
2017-12-10T13:08:19.764Z,4.70
2017-12-10T13:10:47.700Z,5.40
2017-12-10T13:13:15.219Z,3.97
2017-12-10T13:15:43.152Z,5.45
2017-12-10T13:18:12.382Z,5.12
2017-12-10T13:20:39.953Z,5.82
2017-12-10T13:23:07.454Z,5.53
2017-12-10T13:25:35.748Z,7.25
2017-12-10T13:28:03.390Z,4.95
2017-12-10T13:30:31.350Z,4.57
2017-12-10T13:32:58.867Z,5.43
2017-12-10T13:35:26.361Z,5.10
2017-12-10T13:37:54.648Z,6.35
2017-12-10T13:40:22.133Z,4.75
2017-12-10T13:42:50.439Z,6.05
2017-12-10T13:45:18.177Z,6.35
2017-12-10T13:47:45.729Z,7.40
2017-12-10T13:50:14.302Z,7.05
2017-12-10T13:52:41.823Z,8.98
2017-12-10T13:55:09.322Z,6.68
2017-12-10T13:57:39.482Z,8.38
2017-12-10T14:00:07.024Z,8.27
2017-12-10T14:02:34.525Z,5.10
2017-12-10T14:05:02.035Z,8.70
2017-12-10T14:07:29.530Z,7.35
2017-12-10T14:09:57.022Z,8.70
2017-12-10T14:12:24.554Z,8.63
2017-12-10T14:14:52.118Z,6.78
2017-12-10T14:17:19.594Z,8.13
2017-12-10T14:19:47.076Z,7.85
2017-12-10T14:22:15.341Z,7.15
2017-12-10T14:24:43.644Z,7.10
2017-12-10T14:27:11.198Z,7.90
2017-12-10T14:29:39.451Z,10.10
2017-12-10T14:32:06.986Z,6.10
2017-12-10T14:34:34.471Z,6.43
2017-12-10T14:37:02.729Z,8.20
2017-12-10T14:39:30.278Z,5.87
2017-12-10T14:41:57.766Z,6.18
2017-12-10T14:44:26.023Z,5.30
2017-12-10T14:46:53.565Z,6.53
2017-12-10T14:49:21.107Z,6.50
2017-12-10T14:51:49.322Z,6.05
2017-12-10T14:54:16.844Z,7.90
2017-12-10T14:56:44.522Z,7.37
2017-12-10T14:59:12.103Z,7.37
2017-12-10T15:01:39.634Z,7.25
2017-12-10T15:04:07.130Z,8.98
2017-12-10T15:06:34.606Z,7.68
2017-12-10T15:09:02.922Z,5.53
2017-12-10T15:11:30.405Z,8.15
2017-12-10T15:13:57.910Z,7.87
2017-12-10T15:16:25.647Z,6.47
2017-12-10T15:18:53.186Z,6.95
2017-12-10T15:21:20.787Z,7.45
2017-12-10T15:23:48.466Z,5.95
2017-12-10T15:26:15.954Z,6.40
2017-12-10T15:28:43.506Z,6.80
2017-12-10T15:31:11.134Z,7.47
2017-12-10T15:33:38.607Z,5.80
2017-12-10T15:36:06.102Z,7.65
2017-12-10T15:38:33.626Z,5.72
2017-12-10T15:41:01.658Z,5.87
2017-12-10T15:43:29.215Z,5.50
2017-12-10T15:45:56.708Z,4.55
2017-12-10T15:48:24.211Z,5.40
2017-12-10T15:50:51.892Z,6.62
2017-12-10T15:53:19.434Z,6.12
2017-12-10T15:55:46.941Z,5.15
2017-12-10T15:58:14.426Z,5.00
2017-12-10T16:00:42.443Z,6.25
2017-12-10T16:03:10.009Z,6.50
2017-12-10T16:05:37.750Z,6.70
2017-12-10T16:08:05.385Z,7.57
2017-12-10T16:10:32.909Z,5.18
2017-12-10T16:13:04.535Z,3.28
2017-12-10T16:15:34.006Z,3.40
2017-12-10T16:18:02.506Z,3.10
2017-12-10T16:20:30.030Z,3.50
2017-12-10T16:22:58.729Z,3.08
2017-12-10T16:25:26.218Z,4.78
2017-12-10T16:27:53.745Z,4.72
2017-12-10T16:30:21.227Z,5.72
2017-12-10T16:32:48.722Z,3.83
2017-12-10T16:35:16.999Z,4.57
2017-12-10T16:37:44.486Z,5.25
2017-12-10T16:40:12.086Z,4.18
2017-12-10T16:42:39.586Z,5.15
2017-12-10T16:45:07.190Z,7.30
2017-12-10T16:47:34.670Z,4.47
2017-12-10T16:50:02.205Z,4.65
2017-12-10T16:52:29.714Z,4.10
2017-12-10T16:54:57.977Z,3.72
2017-12-10T16:57:26.268Z,3.10
2017-12-10T16:59:53.778Z,2.90
2017-12-10T17:02:22.752Z,4.00
2017-12-10T17:04:50.242Z,3.37
2017-12-10T17:07:17.741Z,2.55
2017-12-10T17:09:45.261Z,2.83
2017-12-10T17:12:13.258Z,2.80
2017-12-10T17:14:40.798Z,4.10
2017-12-10T17:17:08.390Z,3.42
2017-12-10T17:19:35.886Z,3.53
2017-12-10T17:22:03.462Z,4.00
2017-12-10T17:24:31.000Z,3.58
2017-12-10T17:26:58.477Z,4.57
2017-12-10T17:29:26.000Z,4.32
2017-12-10T17:31:54.315Z,4.90
2017-12-10T17:34:21.798Z,4.35
2017-12-10T17:36:50.809Z,3.50
2017-12-10T17:39:18.295Z,5.10
2017-12-10T17:41:45.783Z,3.78
2017-12-10T17:44:14.030Z,3.25
2017-12-10T17:46:41.546Z,5.50
2017-12-10T17:49:10.467Z,4.30
2017-12-10T17:51:37.950Z,2.80
2017-12-10T17:54:05.438Z,4.60
2017-12-10T17:56:33.543Z,2.87
2017-12-10T17:59:03.060Z,3.05
2017-12-10T18:01:30.543Z,3.05
2017-12-10T18:03:58.938Z,3.20
2017-12-10T18:06:26.421Z,3.10
2017-12-10T18:08:54.670Z,3.37
2017-12-10T18:11:22.177Z,3.78
2017-12-10T18:13:49.662Z,2.20
2017-12-10T18:16:17.140Z,2.92
2017-12-10T18:18:44.879Z,2.53
2017-12-10T18:21:12.398Z,2.30
2017-12-10T18:23:40.235Z,2.65
2017-12-10T18:26:07.833Z,3.12
2017-12-10T18:28:35.322Z,2.67
2017-12-10T18:31:02.881Z,1.60
2017-12-10T18:33:30.386Z,2.00
2017-12-10T18:35:57.984Z,1.75
2017-12-10T18:38:26.219Z,1.70
2017-12-10T18:40:54.683Z,1.42
2017-12-10T18:43:22.186Z,1.92
2017-12-10T18:45:50.552Z,1.75
2017-12-10T18:48:18.111Z,1.55
2017-12-10T18:50:46.390Z,1.80
2017-12-10T18:53:14.758Z,2.55
2017-12-10T18:55:43.042Z,2.22
2017-12-10T18:58:11.322Z,2.33
2017-12-10T19:00:38.846Z,3.40
2017-12-10T19:03:07.158Z,2.80
2017-12-10T19:05:34.662Z,2.87
2017-12-10T19:08:02.208Z,4.10
2017-12-10T19:10:29.726Z,2.92
2017-12-10T19:12:58.006Z,3.58
2017-12-10T19:15:26.286Z,3.65
2017-12-10T19:17:54.558Z,3.17
2017-12-10T19:20:22.830Z,3.42
2017-12-10T19:22:51.110Z,3.25
2017-12-10T19:25:19.470Z,2.85
2017-12-10T19:27:47.742Z,3.47
2017-12-10T19:30:15.234Z,3.80
2017-12-10T19:32:43.882Z,3.17
2017-12-10T19:35:11.475Z,3.37
2017-12-10T19:37:38.971Z,2.65
2017-12-10T19:40:06.455Z,3.47
2017-12-10T19:42:34.050Z,3.12
2017-12-10T19:45:02.299Z,2.67
2017-12-10T19:47:29.783Z,2.67
2017-12-10T19:49:58.058Z,2.37
2017-12-10T19:52:26.314Z,2.90
2017-12-10T19:54:53.877Z,3.00
2017-12-10T19:57:21.378Z,2.90
2017-12-10T19:59:48.861Z,3.00
2017-12-10T20:02:16.382Z,3.05
2017-12-10T20:04:44.138Z,3.37
2017-12-10T20:07:11.698Z,3.50
2017-12-10T20:09:39.216Z,3.60
2017-12-10T20:12:06.725Z,2.70
2017-12-10T20:14:34.213Z,3.12
2017-12-10T20:17:01.715Z,3.47
2017-12-10T20:19:29.983Z,2.85
2017-12-10T20:21:59.060Z,3.65
2017-12-10T20:24:26.618Z,3.10
2017-12-10T20:26:56.148Z,3.85
2017-12-10T20:29:23.662Z,3.40
2017-12-10T20:31:51.155Z,3.37
2017-12-10T20:34:18.662Z,3.47
2017-12-10T20:36:46.535Z,3.85
2017-12-10T20:39:14.491Z,3.90
2017-12-10T20:41:42.811Z,3.53
2017-12-10T20:44:10.294Z,3.75
2017-12-10T20:46:37.775Z,3.90
2017-12-10T20:49:06.092Z,3.67
2017-12-10T20:51:34.446Z,3.75
2017-12-10T20:54:01.917Z,4.22
2017-12-10T20:56:29.401Z,4.28
2017-12-10T20:58:56.914Z,4.50
2017-12-10T21:01:24.413Z,4.97
2017-12-10T21:03:52.082Z,4.97
2017-12-10T21:06:20.966Z,5.03
2017-12-10T21:08:49.830Z,4.45
2017-12-10T21:11:17.315Z,5.50
2017-12-10T21:13:44.838Z,5.57
2017-12-10T21:16:12.317Z,4.93
2017-12-10T21:18:39.789Z,4.65
2017-12-10T21:21:07.311Z,5.82
2017-12-10T21:23:34.813Z,6.20
2017-12-10T21:26:02.359Z,5.43
2017-12-10T21:28:29.851Z,6.12
2017-12-10T21:30:57.354Z,5.45
2017-12-10T21:33:24.848Z,6.57
2017-12-10T21:35:52.323Z,5.75
2017-12-10T21:38:20.607Z,5.82
2017-12-10T21:40:48.854Z,6.30
2017-12-10T21:43:16.465Z,5.10
2017-12-10T21:45:44.174Z,5.85
2017-12-10T21:48:11.695Z,5.90
2017-12-10T21:50:39.222Z,5.60
2017-12-10T21:53:07.474Z,5.18
2017-12-10T21:55:34.952Z,6.15
2017-12-10T21:58:03.250Z,7.40
2017-12-10T22:00:30.733Z,6.12
2017-12-10T22:02:58.428Z,7.15
2017-12-10T22:05:25.946Z,7.10
2017-12-10T22:07:53.457Z,7.07
2017-12-10T22:10:20.934Z,7.28
2017-12-10T22:12:50.509Z,7.07
2017-12-10T22:15:18.802Z,7.65
2017-12-10T22:17:46.318Z,7.55
2017-12-10T22:20:13.804Z,8.20
2017-12-10T22:22:41.306Z,6.82
2017-12-10T22:25:08.785Z,7.60
2017-12-10T22:27:36.376Z,7.00
2017-12-10T22:30:03.951Z,7.18
2017-12-10T22:32:31.421Z,8.93
2017-12-10T22:34:59.246Z,7.82
2017-12-10T22:37:26.810Z,8.27
2017-12-10T22:39:54.317Z,7.80
2017-12-10T22:42:21.814Z,7.43
2017-12-10T22:44:49.338Z,7.80
2017-12-10T22:47:16.818Z,8.05
2017-12-10T22:49:45.321Z,6.68
2017-12-10T22:52:12.796Z,6.95
2017-12-10T22:54:40.717Z,7.30
2017-12-10T22:57:08.296Z,7.25
2017-12-10T22:59:35.770Z,7.10
2017-12-10T23:02:03.369Z,7.72
2017-12-10T23:04:31.651Z,7.45
2017-12-10T23:06:59.899Z,7.60
2017-12-10T23:09:27.770Z,7.60
2017-12-10T23:11:55.305Z,9.10
2017-12-10T23:14:23.552Z,7.47
2017-12-10T23:16:51.026Z,8.73
2017-12-10T23:19:18.530Z,7.18
2017-12-10T23:21:46.802Z,7.97
2017-12-10T23:24:14.278Z,7.90
2017-12-10T23:26:42.562Z,7.10
2017-12-10T23:29:10.364Z,7.62
2017-12-10T23:31:37.857Z,7.10
2017-12-10T23:34:05.357Z,7.32
2017-12-10T23:36:33.066Z,7.78
2017-12-10T23:39:00.604Z,7.90
2017-12-10T23:41:28.311Z,7.68
2017-12-10T23:43:56.551Z,7.60
2017-12-10T23:46:24.066Z,7.57
2017-12-10T23:48:52.725Z,7.62
2017-12-10T23:51:20.262Z,8.82
2017-12-10T23:53:47.743Z,8.25
2017-12-10T23:56:15.246Z,8.93
2017-12-10T23:58:42.725Z,8.35
